Time;durP1;ratioP1;P1;durP2;ratioP2;P2;SDS_P1;SDS_P2;PMS_P1;PMS_P2;Temp;Humidity;BMP_temperature;BMP_pressure;BME280_temperature;BME280_humidity;BME280_pressure;Samples;Min_cycle;Max_cycle;Signal;HPM_P1;HPM_P2
2023/05/05 00:00:41;;;;;;;6.53;4.50;;;16.30;95.70;;;;;;5096834;28;20213;-58
2023/05/05 00:03:07;;;;;;;6.25;4.50;;;16.30;95.70;;;;;;5097006;28;20224;-58
2023/05/05 00:05:34;;;;;;;7.80;4.05;;;16.30;95.70;;;;;;5095986;28;20206;-60
2023/05/05 00:08:02;;;;;;;7.32;4.45;;;16.30;95.90;;;;;;5095658;28;20298;-58
2023/05/05 00:10:28;;;;;;;8.48;4.57;;;16.20;96.10;;;;;;5095463;28;20204;-59
2023/05/05 00:12:56;;;;;;;8.40;4.35;;;16.20;96.30;;;;;;5094527;28;20605;-59
2023/05/05 00:15:23;;;;;;;9.82;4.68;;;16.20;96.30;;;;;;5095328;28;20208;-58
2023/05/05 00:17:50;;;;;;;7.75;4.53;;;16.30;96.10;;;;;;5094238;28;20249;-59
2023/05/05 00:20:17;;;;;;;5.45;4.18;;;16.40;95.80;;;;;;5093971;28;20240;-57
2023/05/05 00:22:44;;;;;;;7.20;4.32;;;16.30;95.90;;;;;;5093827;28;20669;-59
2023/05/05 00:25:11;;;;;;;6.38;4.30;;;16.20;96.10;;;;;;5093675;28;20214;-58
2023/05/05 00:27:37;;;;;;;8.63;4.28;;;16.10;96.30;;;;;;5093399;28;20209;-57
2023/05/05 00:30:07;;;;;;;5.88;3.80;;;16.10;96.30;;;;;;5094514;28;20298;-60
2023/05/05 00:32:34;;;;;;;8.80;4.20;;;16.20;96.10;;;;;;5093982;28;20200;-59
2023/05/05 00:35:00;;;;;;;6.20;4.07;;;16.20;96.20;;;;;;5094238;28;20278;-59
2023/05/05 00:37:27;;;;;;;4.90;4.15;;;16.20;96.30;;;;;;5095283;28;20207;-59
2023/05/05 00:39:54;;;;;;;8.27;3.88;;;16.20;96.30;;;;;;5094689;28;20204;-60
2023/05/05 00:42:20;;;;;;;6.93;4.35;;;16.30;96.40;;;;;;5094668;28;20234;-60
2023/05/05 00:44:47;;;;;;;5.63;3.77;;;16.30;96.60;;;;;;5093449;28;20231;-59
2023/05/05 00:47:16;;;;;;;5.97;4.13;;;16.30;96.90;;;;;;5093981;28;20215;-59
2023/05/05 00:49:43;;;;;;;8.80;4.15;;;16.20;97.30;;;;;;5094548;28;20207;-59
2023/05/05 00:52:10;;;;;;;6.05;4.32;;;16.20;97.70;;;;;;5094867;28;20219;-59
2023/05/05 00:54:37;;;;;;;7.13;4.05;;;16.20;97.80;;;;;;5094138;28;20608;-59
2023/05/05 00:57:04;;;;;;;4.47;3.40;;;16.20;98.20;;;;;;5094118;28;20212;-58
2023/05/05 00:59:33;;;;;;;7.93;3.95;;;16.10;98.30;;;;;;5093667;28;20208;-60
2023/05/05 01:02:00;;;;;;;5.80;3.63;;;16.10;98.40;;;;;;5093629;28;20204;-58
2023/05/05 01:04:28;;;;;;;5.88;3.88;;;16.10;98.40;;;;;;5093863;28;20227;-58
2023/05/05 01:07:17;;;;;;;5.82;4.38;;;16.00;98.50;;;;;;5093347;28;20206;-58
2023/05/05 01:09:50;;;;;;;5.07;3.70;;;16.00;98.80;;;;;;5093993;28;20216;-59
2023/05/05 01:12:27;;;;;;;5.70;3.78;;;16.00;98.80;;;;;;5094418;28;20223;-60
2023/05/05 01:15:09;;;;;;;4.65;4.13;;;16.00;98.90;;;;;;5094500;28;20216;-60
2023/05/05 01:17:41;;;;;;;5.37;4.13;;;16.00;98.90;;;;;;5097487;28;20208;-59
2023/05/05 01:20:18;;;;;;;4.95;3.90;;;16.00;98.90;;;;;;5097959;28;20579;-59
2023/05/05 01:22:47;;;;;;;5.35;4.20;;;16.00;99.10;;;;;;5098254;28;20204;-59
2023/05/05 01:25:49;;;;;;;6.28;4.18;;;16.00;99.10;;;;;;5098613;28;20591;-60
2023/05/05 01:28:38;;;;;;;5.38;4.18;;;16.00;99.30;;;;;;5096913;28;20210;-60
2023/05/05 01:38:07;;;;;;;6.93;4.30;;;15.90;99.80;;;;;;5098991;28;20689;-60
2023/05/05 01:40:40;;;;;;;5.22;4.25;;;15.80;99.90;;;;;;5098729;28;20212;-60
2023/05/05 01:43:09;;;;;;;5.07;4.20;;;15.80;99.90;;;;;;5098617;28;20784;-60
2023/05/05 01:45:39;;;;;;;7.32;3.85;;;15.80;99.90;;;;;;5100493;28;20321;-61
2023/05/05 01:48:07;;;;;;;4.90;4.10;;;15.90;99.90;;;;;;5101165;28;20216;-61
2023/05/05 01:50:35;;;;;;;10.43;4.28;;;15.90;99.90;;;;;;5101035;28;20216;-60
2023/05/05 01:53:04;;;;;;;6.20;3.95;;;15.80;99.90;;;;;;5100558;28;20232;-61
2023/05/05 01:55:33;;;;;;;5.93;4.45;;;15.70;99.90;;;;;;5099637;28;20208;-60
2023/05/05 01:58:03;;;;;;;5.60;3.97;;;15.70;99.90;;;;;;5098656;28;20204;-60
2023/05/05 02:00:31;;;;;;;6.90;4.00;;;15.60;99.90;;;;;;5098595;28;20208;-61
2023/05/05 02:03:00;;;;;;;5.18;3.72;;;15.60;99.90;;;;;;5098573;28;20212;-61
2023/05/05 02:05:27;;;;;;;5.38;4.35;;;15.50;99.90;;;;;;5098578;28;20215;-60
2023/05/05 02:07:58;;;;;;;6.17;4.43;;;15.30;99.90;;;;;;5098446;28;20247;-61
2023/05/05 02:10:28;;;;;;;4.32;3.92;;;15.20;99.90;;;;;;5098907;28;20208;-60
2023/05/05 02:12:56;;;;;;;9.30;3.97;;;15.10;99.90;;;;;;5098810;28;20200;-59
2023/05/05 02:15:24;;;;;;;5.73;4.20;;;15.10;99.90;;;;;;5099538;28;20208;-60
2023/05/05 02:17:52;;;;;;;6.50;4.20;;;15.00;99.90;;;;;;5099289;28;20204;-60
2023/05/05 02:20:20;;;;;;;5.03;3.93;;;15.00;99.90;;;;;;5099206;28;20204;-60
2023/05/05 02:22:47;;;;;;;7.30;4.13;;;14.90;99.90;;;;;;5100209;28;20204;-61
2023/05/05 02:25:13;;;;;;;5.17;3.80;;;15.00;99.90;;;;;;5098823;28;20208;-60
2023/05/05 02:27:43;;;;;;;4.43;3.72;;;15.00;99.90;;;;;;5098230;28;20332;-61
2023/05/05 02:30:13;;;;;;;5.10;3.90;;;15.00;99.90;;;;;;5098359;28;20208;-61
2023/05/05 02:32:47;;;;;;;6.30;4.60;;;14.90;99.90;;;;;;5098445;28;20207;-61
2023/05/05 02:35:17;;;;;;;5.70;4.20;;;14.90;99.90;;;;;;5099070;28;20277;-60
2023/05/05 02:37:48;;;;;;;6.30;4.50;;;14.90;99.90;;;;;;5098824;28;20215;-60
2023/05/05 02:40:19;;;;;;;5.70;3.93;;;14.90;99.90;;;;;;5098225;28;20672;-60
2023/05/05 02:42:49;;;;;;;6.80;4.17;;;15.00;99.90;;;;;;5098269;28;20223;-60
2023/05/05 02:45:20;;;;;;;4.77;3.80;;;15.00;99.90;;;;;;5098502;28;20208;-60
2023/05/05 02:47:46;;;;;;;7.17;4.20;;;15.00;99.90;;;;;;5097772;28;20208;-60
2023/05/05 02:50:14;;;;;;;7.77;3.90;;;15.10;99.90;;;;;;5097131;28;20212;-60
2023/05/05 02:52:41;;;;;;;8.23;4.33;;;15.10;99.90;;;;;;5097281;28;20204;-61
2023/05/05 02:55:09;;;;;;;6.50;4.23;;;15.10;99.90;;;;;;5097106;28;20655;-59
2023/05/05 02:57:40;;;;;;;4.57;3.73;;;15.20;99.90;;;;;;5096568;28;20264;-60
2023/05/05 03:00:18;;;;;;;6.97;4.33;;;15.20;99.90;;;;;;5096978;28;20219;-60
2023/05/05 03:02:55;;;;;;;7.87;4.67;;;15.20;99.90;;;;;;5096484;28;20212;-60
2023/05/05 03:05:23;;;;;;;5.20;4.23;;;15.10;99.90;;;;;;5096481;28;20204;-60
2023/05/05 03:08:00;;;;;;;8.77;4.90;;;15.10;99.90;;;;;;5095952;28;20212;-59
2023/05/05 03:10:30;;;;;;;6.43;4.30;;;15.00;99.90;;;;;;5096791;28;20210;-60
2023/05/05 03:13:01;;;;;;;6.00;4.13;;;15.00;99.90;;;;;;5096537;28;20207;-60
2023/05/05 03:15:32;;;;;;;7.83;4.40;;;14.90;99.90;;;;;;5096636;28;20235;-59
2023/05/05 03:18:00;;;;;;;7.47;4.33;;;14.90;99.90;;;;;;5095797;28;20641;-60
2023/05/05 03:20:27;;;;;;;5.60;4.17;;;14.90;99.90;;;;;;5096834;28;20210;-59
2023/05/05 03:22:54;;;;;;;6.40;4.60;;;14.90;99.90;;;;;;5095923;28;20208;-59
2023/05/05 03:25:21;;;;;;;4.27;3.87;;;14.80;99.90;;;;;;5096899;28;20200;-60
2023/05/05 03:27:48;;;;;;;7.17;4.20;;;14.70;99.90;;;;;;5095833;28;20211;-60
2023/05/05 03:30:15;;;;;;;5.43;4.33;;;14.60;99.90;;;;;;5096239;28;20234;-60
2023/05/05 03:32:43;;;;;;;7.50;3.80;;;14.60;99.90;;;;;;5096570;28;20208;-60
2023/05/05 03:35:10;;;;;;;6.30;4.53;;;14.50;99.90;;;;;;5096550;28;20224;-59
2023/05/05 03:37:36;;;;;;;4.83;4.20;;;14.40;99.90;;;;;;5097090;28;20362;-60
2023/05/05 03:40:03;;;;;;;7.07;4.43;;;14.50;99.90;;;;;;5098028;28;20211;-59
2023/05/05 03:42:30;;;;;;;7.37;4.30;;;14.50;99.90;;;;;;5097893;28;20212;-60
2023/05/05 03:44:57;;;;;;;7.57;4.23;;;14.50;99.90;;;;;;5096729;28;20231;-60
2023/05/05 03:47:23;;;;;;;6.67;4.00;;;14.40;99.90;;;;;;5095175;28;20679;-59
2023/05/05 03:49:51;;;;;;;4.60;4.10;;;14.30;99.90;;;;;;5095477;28;20211;-60
2023/05/05 03:52:18;;;;;;;5.13;4.00;;;14.20;99.90;;;;;;5095446;28;20207;-60
2023/05/05 03:54:45;;;;;;;5.43;4.37;;;14.30;99.90;;;;;;5095122;28;20224;-59
2023/05/05 03:57:12;;;;;;;8.40;4.47;;;14.30;99.90;;;;;;5094562;28;20200;-59
2023/05/05 03:59:39;;;;;;;4.50;4.03;;;14.30;99.90;;;;;;5095511;28;20204;-60
2023/05/05 04:02:06;;;;;;;6.93;4.23;;;14.20;99.90;;;;;;5094713;28;20234;-60
2023/05/05 04:04:32;;;;;;;4.10;3.80;;;14.20;99.90;;;;;;5095035;28;20250;-60
2023/05/05 04:07:00;;;;;;;4.23;3.83;;;14.20;99.90;;;;;;5095399;28;20204;-60
2023/05/05 04:09:27;;;;;;;7.37;4.50;;;14.20;99.90;;;;;;5094587;28;20204;-59
2023/05/05 04:11:54;;;;;;;4.83;4.30;;;14.20;99.90;;;;;;5094462;28;20204;-59
2023/05/05 04:14:21;;;;;;;5.30;4.50;;;14.20;99.90;;;;;;5094499;28;20718;-60
2023/05/05 04:16:47;;;;;;;5.87;4.23;;;14.10;99.90;;;;;;5095176;28;20295;-60
2023/05/05 04:19:14;;;;;;;5.70;4.53;;;14.10;99.90;;;;;;5094845;28;20703;-59
2023/05/05 04:21:41;;;;;;;8.27;4.10;;;14.10;99.90;;;;;;5095231;28;20269;-60
2023/05/05 04:24:10;;;;;;;5.53;4.63;;;14.20;99.90;;;;;;5095079;28;20226;-59
2023/05/05 04:26:36;;;;;;;7.03;4.60;;;14.30;99.90;;;;;;5095935;28;20204;-60
2023/05/05 04:29:03;;;;;;;10.90;4.57;;;14.40;99.90;;;;;;5095114;28;20679;-60
2023/05/05 04:31:30;;;;;;;6.03;4.67;;;14.50;99.90;;;;;;5096716;28;20204;-61
2023/05/05 04:33:57;;;;;;;6.43;4.10;;;14.70;99.90;;;;;;5096866;28;20310;-61
2023/05/05 04:36:24;;;;;;;8.77;4.73;;;14.80;99.90;;;;;;5097032;28;20212;-61
2023/05/05 04:38:51;;;;;;;7.83;4.03;;;14.90;99.90;;;;;;5097740;28;20238;-60
2023/05/05 04:41:20;;;;;;;7.00;4.17;;;15.00;99.90;;;;;;5097316;28;20235;-61
2023/05/05 04:43:46;;;;;;;7.63;4.00;;;15.20;99.90;;;;;;5096201;28;20232;-60
2023/05/05 04:46:13;;;;;;;5.53;4.13;;;15.20;99.90;;;;;;5096689;28;20239;-60
2023/05/05 04:48:40;;;;;;;6.60;4.27;;;15.30;99.90;;;;;;5097335;28;20219;-61
2023/05/05 04:51:07;;;;;;;7.93;4.30;;;15.40;99.90;;;;;;5099806;28;20211;-60
2023/05/05 04:53:34;;;;;;;5.20;4.20;;;15.50;99.90;;;;;;5100174;28;20231;-61
2023/05/05 04:56:01;;;;;;;5.03;4.10;;;15.60;99.90;;;;;;5099729;28;20236;-61
2023/05/05 04:58:29;;;;;;;8.20;4.00;;;15.60;99.90;;;;;;5099436;28;20200;-61
2023/05/05 05:00:56;;;;;;;4.43;4.00;;;15.60;99.90;;;;;;5100058;28;20290;-61
2023/05/05 05:03:23;;;;;;;4.90;3.80;;;15.70;99.90;;;;;;5099890;28;20224;-60
2023/05/05 05:05:50;;;;;;;8.13;4.65;;;15.90;99.90;;;;;;5099890;28;20204;-60
2023/05/05 05:08:17;;;;;;;5.15;4.05;;;16.00;99.90;;;;;;5099730;28;20215;-60
2023/05/05 05:10:44;;;;;;;6.55;4.15;;;16.10;99.90;;;;;;5100100;28;20215;-60
2023/05/05 05:13:12;;;;;;;4.40;3.90;;;16.30;99.90;;;;;;5100261;28;20231;-60
2023/05/05 05:15:40;;;;;;;8.65;4.05;;;16.40;99.90;;;;;;5100440;28;20220;-61
2023/05/05 05:18:07;;;;;;;7.22;4.20;;;16.50;99.90;;;;;;5100013;28;20451;-61
2023/05/05 05:20:34;;;;;;;7.38;4.55;;;16.50;99.90;;;;;;5097948;28;20244;-61
2023/05/05 05:23:01;;;;;;;9.43;4.77;;;16.50;99.90;;;;;;5097052;28;20204;-61
2023/05/05 05:25:28;;;;;;;7.22;4.65;;;16.80;99.90;;;;;;5097272;28;20246;-61
2023/05/05 05:27:55;;;;;;;10.65;5.35;;;16.80;99.90;;;;;;5097555;28;20208;-61
2023/05/05 05:30:21;;;;;;;6.70;4.95;;;16.90;99.90;;;;;;5097439;28;20239;-61
2023/05/05 05:32:49;;;;;;;10.48;5.63;;;17.20;99.90;;;;;;5097663;28;20208;-60
2023/05/05 05:35:16;;;;;;;6.30;4.28;;;18.20;99.90;;;;;;5097218;28;20227;-61
2023/05/05 05:37:44;;;;;;;8.23;4.25;;;19.70;99.90;;;;;;5097522;28;20204;-61
2023/05/05 05:40:12;;;;;;;5.80;3.83;;;21.50;99.90;;;;;;5097941;28;20230;-61
2023/05/05 05:42:40;;;;;;;8.32;3.80;;;23.10;99.90;;;;;;5098420;28;20211;-61
2023/05/05 05:45:08;;;;;;;9.18;3.88;;;24.60;97.50;;;;;;5097337;28;20360;-61
2023/05/05 05:47:34;;;;;;;6.00;4.03;;;25.90;94.60;;;;;;5097325;28;20211;-61
2023/05/05 05:50:03;;;;;;;7.15;3.83;;;27.10;92.60;;;;;;5097031;28;20218;-61
2023/05/05 05:52:30;;;;;;;7.70;4.03;;;28.30;89.70;;;;;;5096814;28;20204;-61
2023/05/05 05:54:57;;;;;;;7.57;3.80;;;29.30;84.70;;;;;;5096765;28;20235;-61
2023/05/05 05:57:24;;;;;;;4.60;3.90;;;29.40;82.90;;;;;;5097042;28;20564;-61
2023/05/05 05:59:50;;;;;;;6.05;3.85;;;29.60;81.50;;;;;;5097050;28;20211;-60
2023/05/05 06:02:17;;;;;;;5.72;3.40;;;30.30;79.20;;;;;;5096332;28;20204;-61
2023/05/05 06:04:44;;;;;;;4.60;3.10;;;30.70;76.30;;;;;;5096577;28;20888;-62
2023/05/05 06:07:12;;;;;;;4.25;3.45;;;30.50;75.50;;;;;;5096443;28;20208;-61
2023/05/05 06:09:39;;;;;;;6.55;3.40;;;29.70;77.00;;;;;;5097034;28;20227;-61
2023/05/05 06:12:06;;;;;;;7.38;3.42;;;29.80;77.70;;;;;;5097231;28;20215;-61
2023/05/05 06:14:33;;;;;;;7.10;4.43;;;30.30;76.20;;;;;;5097074;28;20232;-62
2023/05/05 06:16:59;;;;;;;7.05;5.40;;;30.20;75.60;;;;;;5096494;28;20682;-61
2023/05/05 06:19:26;;;;;;;9.52;5.68;;;30.30;76.10;;;;;;5095969;28;20220;-62
2023/05/05 06:21:53;;;;;;;9.18;5.80;;;31.00;73.90;;;;;;5096524;28;20212;-59
2023/05/05 06:24:21;;;;;;;9.43;5.30;;;31.90;72.20;;;;;;5096168;28;20596;-62
2023/05/05 06:26:48;;;;;;;6.93;4.05;;;33.10;70.00;;;;;;5095353;28;20204;-61
2023/05/05 06:29:14;;;;;;;9.18;3.80;;;34.40;66.90;;;;;;5096480;28;20211;-62
2023/05/05 06:31:41;;;;;;;6.07;3.17;;;35.30;63.60;;;;;;5096990;28;20272;-61
2023/05/05 06:34:08;;;;;;;4.05;2.60;;;35.10;61.90;;;;;;5095830;28;20227;-62
2023/05/05 06:36:35;;;;;;;8.43;2.83;;;33.80;63.30;;;;;;5095886;28;20208;-68
2023/05/05 06:39:01;;;;;;;8.57;2.78;;;32.20;67.00;;;;;;5097009;28;20237;-61
2023/05/05 06:41:29;;;;;;;4.32;2.40;;;31.30;68.70;;;;;;5098871;28;20208;-62
2023/05/05 06:43:56;;;;;;;8.18;3.17;;;30.80;69.90;;;;;;5098054;28;20258;-62
2023/05/05 06:46:23;;;;;;;9.82;7.25;;;30.20;71.60;;;;;;5096342;28;20211;-62
2023/05/05 06:48:50;;;;;;;5.53;3.10;;;29.70;72.80;;;;;;5096199;28;20208;-62
2023/05/05 06:51:17;;;;;;;4.85;3.22;;;29.00;74.30;;;;;;5096300;28;20215;-61
2023/05/05 06:53:43;;;;;;;5.00;3.25;;;28.20;75.90;;;;;;5096329;28;20228;-62
2023/05/05 06:56:11;;;;;;;7.00;2.45;;;27.30;78.60;;;;;;5096622;28;20251;-61
2023/05/05 06:58:40;;;;;;;4.47;3.72;;;26.80;80.60;;;;;;5096038;28;20660;-62
2023/05/05 07:01:06;;;;;;;13.05;4.30;;;26.70;81.60;;;;;;5095634;28;20664;-61
2023/05/05 07:03:33;;;;;;;7.63;2.92;;;27.20;81.50;;;;;;5096368;28;20228;-62
2023/05/05 07:06:00;;;;;;;5.40;2.47;;;28.40;79.00;;;;;;5097344;28;20242;-62
2023/05/05 07:08:26;;;;;;;5.22;2.35;;;29.70;75.80;;;;;;5098449;28;20210;-62
2023/05/05 07:10:53;;;;;;;4.40;2.42;;;30.90;73.00;;;;;;5098245;28;20691;-62
2023/05/05 07:13:20;;;;;;;5.97;2.28;;;30.90;71.50;;;;;;5097612;28;20286;-62
2023/05/05 07:15:48;;;;;;;4.93;2.58;;;30.40;72.80;;;;;;5099746;28;20234;-62
2023/05/05 07:18:15;;;;;;;4.82;2.45;;;30.00;73.90;;;;;;5096397;28;20205;-61
2023/05/05 07:20:43;;;;;;;4.63;2.22;;;29.80;73.90;;;;;;5094913;28;20671;-64
2023/05/05 07:23:10;;;;;;;5.28;2.00;;;29.60;74.10;;;;;;5095472;28;20231;-63
2023/05/05 07:25:37;;;;;;;2.83;1.90;;;29.30;75.10;;;;;;5096084;28;20204;-63
2023/05/05 07:28:04;;;;;;;5.88;2.40;;;28.80;76.10;;;;;;5095938;28;20219;-63
2023/05/05 07:30:31;;;;;;;4.38;2.15;;;28.40;77.10;;;;;;5096686;28;20239;-63
2023/05/05 07:32:59;;;;;;;5.78;2.67;;;28.20;77.90;;;;;;5096649;28;20655;-63
2023/05/05 07:35:26;;;;;;;4.45;2.97;;;27.80;79.20;;;;;;5098778;28;20719;-63
2023/05/05 07:37:53;;;;;;;8.80;7.40;;;27.40;81.00;;;;;;5098945;28;20200;-62
2023/05/05 07:40:20;;;;;;;4.05;2.55;;;27.20;81.90;;;;;;5098350;28;20204;-63
2023/05/05 07:42:47;;;;;;;4.47;2.28;;;27.00;82.60;;;;;;5096266;28;20208;-63
2023/05/05 07:45:14;;;;;;;5.85;2.72;;;27.00;82.40;;;;;;5095059;28;20234;-62
2023/05/05 07:47:41;;;;;;;5.00;2.70;;;26.80;83.60;;;;;;5093050;28;20207;-63
2023/05/05 07:50:09;;;;;;;13.07;4.10;;;26.60;84.10;;;;;;5092686;28;20207;-62
2023/05/05 07:52:36;;;;;;;4.90;2.80;;;26.50;85.00;;;;;;5093289;28;20239;-62
2023/05/05 07:55:04;;;;;;;3.40;2.30;;;26.20;85.90;;;;;;5092850;28;20315;-61
2023/05/05 07:57:30;;;;;;;3.95;2.42;;;26.00;86.70;;;;;;5092800;28;20204;-62
2023/05/05 07:59:57;;;;;;;5.95;2.58;;;25.70;88.40;;;;;;5092993;28;20239;-62
2023/05/05 08:02:24;;;;;;;6.47;2.75;;;25.40;89.70;;;;;;5093151;28;20203;-62
2023/05/05 08:04:51;;;;;;;4.97;2.50;;;25.30;90.20;;;;;;5093223;28;20262;-62
2023/05/05 08:07:19;;;;;;;3.63;2.55;;;25.00;90.70;;;;;;5093033;28;20208;-62
2023/05/05 08:09:45;;;;;;;7.60;2.97;;;25.20;90.70;;;;;;5092861;28;20294;-61
2023/05/05 08:12:14;;;;;;;7.35;2.65;;;25.20;90.70;;;;;;5093441;28;20215;-62
2023/05/05 08:14:41;;;;;;;6.40;2.70;;;25.30;90.80;;;;;;5093093;28;20611;-62
2023/05/05 08:17:07;;;;;;;9.52;2.60;;;25.30;90.80;;;;;;5093352;28;20708;-62
2023/05/05 08:19:34;;;;;;;5.57;2.70;;;25.20;90.70;;;;;;5090195;28;20208;-58
2023/05/05 08:22:01;;;;;;;4.25;2.55;;;25.20;90.90;;;;;;5064831;28;20756;-66
2023/05/05 08:24:29;;;;;;;4.82;2.67;;;25.00;91.40;;;;;;5071291;28;20689;-62
2023/05/05 08:26:56;;;;;;;12.77;5.07;;;24.80;91.90;;;;;;5069886;28;20235;-61
2023/05/05 08:29:23;;;;;;;13.82;4.72;;;24.60;92.30;;;;;;5071769;28;20669;-61
2023/05/05 08:31:50;;;;;;;7.50;3.30;;;24.40;92.60;;;;;;5071451;28;20208;-64
2023/05/05 08:34:17;;;;;;;8.38;2.92;;;24.40;92.90;;;;;;5072571;28;20228;-62
2023/05/05 08:36:43;;;;;;;7.63;3.25;;;24.30;93.10;;;;;;5071984;28;20264;-62
2023/05/05 08:39:10;;;;;;;5.55;2.80;;;24.20;93.40;;;;;;5071328;28;20208;-61
2023/05/05 08:41:38;;;;;;;6.65;2.70;;;24.20;93.70;;;;;;5071695;28;20209;-61
2023/05/05 08:44:05;;;;;;;13.50;7.85;;;24.10;94.10;;;;;;5070803;28;20236;-62
2023/05/05 08:46:32;;;;;;;6.03;3.08;;;24.00;95.10;;;;;;5071341;28;20208;-63
2023/05/05 08:48:59;;;;;;;9.57;2.95;;;24.00;95.70;;;;;;5071365;28;20212;-62
2023/05/05 08:51:30;;;;;;;7.60;2.65;;;23.80;96.40;;;;;;5072190;28;20211;-62
2023/05/05 08:54:01;;;;;;;3.80;2.20;;;23.70;97.60;;;;;;5074565;28;20605;-60
2023/05/05 08:56:32;;;;;;;8.23;2.78;;;23.50;97.90;;;;;;5072232;28;20240;-62
2023/05/05 08:59:02;;;;;;;6.10;2.80;;;23.30;98.30;;;;;;5072359;28;20570;-62
2023/05/05 09:01:31;;;;;;;4.10;2.70;;;23.20;99.00;;;;;;5072073;28;20201;-64
2023/05/05 09:03:59;;;;;;;9.82;4.85;;;23.10;99.90;;;;;;5071391;28;20801;-63
2023/05/05 09:06:27;;;;;;;12.27;6.90;;;22.90;99.90;;;;;;5071789;28;20208;-62
2023/05/05 09:08:54;;;;;;;3.40;2.60;;;22.80;99.90;;;;;;5071465;28;20603;-63
2023/05/05 09:11:21;;;;;;;4.28;2.10;;;22.80;99.90;;;;;;5071892;28;20201;-63
2023/05/05 09:13:48;;;;;;;5.20;2.40;;;22.80;99.90;;;;;;5071423;28;20246;-64
2023/05/05 09:16:16;;;;;;;6.30;2.33;;;22.80;99.90;;;;;;5071797;28;20315;-63
2023/05/05 09:18:44;;;;;;;5.88;3.03;;;22.80;99.90;;;;;;5070537;28;20266;-62
2023/05/05 09:21:21;;;;;;;9.52;6.80;;;23.10;99.90;;;;;;5070299;28;20232;-61
2023/05/05 09:24:04;;;;;;;7.30;5.13;;;23.40;99.90;;;;;;5070845;28;20278;-59
2023/05/05 09:26:33;;;;;;;9.73;2.88;;;23.70;99.90;;;;;;5070389;28;20239;-59
2023/05/05 09:29:00;;;;;;;6.93;2.72;;;23.90;99.90;;;;;;5070618;28;20217;-59
2023/05/05 09:31:30;;;;;;;6.25;2.42;;;24.10;99.90;;;;;;5069956;28;20224;-59
2023/05/05 09:33:59;;;;;;;4.15;2.25;;;24.40;99.30;;;;;;5070153;28;20224;-59
2023/05/05 09:36:42;;;;;;;3.00;2.20;;;24.70;98.80;;;;;;5072194;28;20262;-58
2023/05/05 09:39:09;;;;;;;4.68;2.83;;;24.90;99.00;;;;;;5073766;28;20741;-59
2023/05/05 09:41:39;;;;;;;5.38;2.65;;;25.10;98.20;;;;;;5073534;28;20212;-59
2023/05/05 09:44:06;;;;;;;5.72;2.60;;;25.30;98.10;;;;;;5073789;28;20232;-59
2023/05/05 09:46:34;;;;;;;4.07;2.78;;;25.50;96.90;;;;;;5073676;28;20211;-59
2023/05/05 09:49:16;;;;;;;3.83;2.33;;;25.60;96.60;;;;;;5073976;28;20209;-59
2023/05/05 09:51:43;;;;;;;4.68;2.58;;;25.70;96.40;;;;;;5073484;28;20205;-60
2023/05/05 09:54:22;;;;;;;4.45;2.30;;;25.80;95.90;;;;;;5073590;28;20244;-60
2023/05/05 09:56:48;;;;;;;3.35;2.20;;;25.80;95.80;;;;;;5073515;28;20228;-60
2023/05/05 09:59:15;;;;;;;3.88;2.15;;;25.80;95.50;;;;;;5073231;28;20205;-59
2023/05/05 10:01:43;;;;;;;2.45;2.00;;;25.80;94.90;;;;;;5073332;28;20254;-59
2023/05/05 10:04:23;;;;;;;4.28;2.22;;;25.90;94.50;;;;;;5073105;28;20225;-60
2023/05/05 10:06:49;;;;;;;4.35;1.92;;;26.00;94.30;;;;;;5073463;28;20296;-59
2023/05/05 10:09:16;;;;;;;3.90;2.08;;;26.00;93.40;;;;;;5073241;28;20205;-59
2023/05/05 10:11:46;;;;;;;4.78;1.90;;;26.10;93.20;;;;;;5073095;28;20673;-59
2023/05/05 10:14:14;;;;;;;2.55;2.03;;;26.40;93.20;;;;;;5072986;28;20225;-59
2023/05/05 10:16:47;;;;;;;4.75;2.50;;;26.80;92.30;;;;;;5073305;28;20307;-60
2023/05/05 10:19:15;;;;;;;4.95;2.13;;;27.10;92.30;;;;;;5073410;28;20270;-59
2023/05/05 10:21:47;;;;;;;3.85;1.90;;;27.60;91.20;;;;;;5073186;28;20661;-60
2023/05/05 10:24:17;;;;;;;2.50;1.75;;;28.00;90.70;;;;;;5073428;28;20278;-62
2023/05/05 10:26:46;;;;;;;7.13;4.13;;;28.30;89.70;;;;;;5072892;28;20240;-61
2023/05/05 10:29:20;;;;;;;5.13;1.85;;;28.40;88.60;;;;;;5072934;28;20263;-61
2023/05/05 10:31:52;;;;;;;2.10;1.75;;;28.70;87.00;;;;;;5072870;28;20219;-64
2023/05/05 10:34:28;;;;;;;3.13;1.80;;;28.80;86.20;;;;;;5072502;28;20665;-60
2023/05/05 10:36:58;;;;;;;4.20;2.25;;;29.00;85.60;;;;;;5072590;28;20227;-59
2023/05/05 10:39:27;;;;;;;3.90;2.20;;;29.10;85.70;;;;;;5073297;28;20211;-59
2023/05/05 10:41:54;;;;;;;2.25;1.80;;;29.00;85.10;;;;;;5072566;28;20303;-59
2023/05/05 10:44:21;;;;;;;4.05;1.92;;;28.90;85.60;;;;;;5072075;28;20233;-60
2023/05/05 10:46:50;;;;;;;3.78;1.90;;;28.70;85.90;;;;;;5071967;28;20212;-59
2023/05/05 10:49:27;;;;;;;2.60;2.17;;;28.50;87.90;;;;;;5072300;28;20205;-59
2023/05/05 10:52:00;;;;;;;4.75;2.17;;;28.30;88.50;;;;;;5072734;28;20262;-60
2023/05/05 10:54:32;;;;;;;5.05;2.35;;;28.10;88.40;;;;;;5072267;28;20602;-59
2023/05/05 10:57:01;;;;;;;4.75;2.45;;;28.00;88.00;;;;;;5071993;28;20233;-59
2023/05/05 10:59:39;;;;;;;4.45;2.22;;;28.00;88.30;;;;;;5072321;28;20204;-60
2023/05/05 11:02:23;;;;;;;2.33;1.75;;;28.10;88.30;;;;;;5072442;28;20216;-58
2023/05/05 11:05:16;;;;;;;2.95;2.00;;;28.10;87.80;;;;;;5072090;28;20567;-59
2023/05/05 11:07:44;;;;;;;4.43;2.25;;;27.80;87.70;;;;;;5072187;28;20228;-59
2023/05/05 11:10:13;;;;;;;7.55;5.03;;;27.40;89.30;;;;;;5071938;28;20632;-60
2023/05/05 11:13:17;;;;;;;4.63;2.33;;;27.00;89.80;;;;;;5071808;28;20723;-59
2023/05/05 11:15:44;;;;;;;6.10;2.42;;;26.60;90.30;;;;;;5072270;28;20209;-60
2023/05/05 11:18:29;;;;;;;4.03;2.28;;;26.50;90.70;;;;;;5072266;28;20224;-58
2023/05/05 11:21:21;;;;;;;5.05;2.72;;;26.40;91.20;;;;;;5072335;28;20230;-59
2023/05/05 11:23:49;;;;;;;3.70;2.08;;;26.30;91.50;;;;;;5072284;28;20476;-59
2023/05/05 11:26:18;;;;;;;2.25;1.63;;;26.00;91.90;;;;;;5072244;28;20205;-59
2023/05/05 11:29:03;;;;;;;2.67;1.85;;;25.80;93.00;;;;;;5071570;28;20703;-59
2023/05/05 11:31:31;;;;;;;4.30;2.53;;;25.60;92.90;;;;;;5072291;28;20216;-59
2023/05/05 11:34:27;;;;;;;7.10;2.25;;;25.30;94.70;;;;;;5072198;28;20232;-59
2023/05/05 11:36:57;;;;;;;4.47;3.53;;;25.10;95.30;;;;;;5072085;28;20290;-59
2023/05/05 11:39:35;;;;;;;3.53;2.30;;;25.00;97.30;;;;;;5072435;28;20232;-60
2023/05/05 11:42:24;;;;;;;3.83;2.17;;;25.00;97.20;;;;;;5071751;28;20297;-59
2023/05/05 11:44:51;;;;;;;3.72;2.05;;;25.10;97.90;;;;;;5071647;28;20264;-59
2023/05/05 11:47:31;;;;;;;2.42;2.20;;;25.20;97.80;;;;;;5071418;28;20201;-60
2023/05/05 11:50:19;;;;;;;2.75;1.98;;;25.20;97.60;;;;;;5071863;28;20262;-60
2023/05/05 11:52:46;;;;;;;3.63;2.30;;;25.30;97.00;;;;;;5071728;28;20209;-60
2023/05/05 11:55:20;;;;;;;6.30;3.63;;;25.40;97.20;;;;;;5071754;28;20213;-60
2023/05/05 11:57:47;;;;;;;4.65;2.20;;;25.40;98.10;;;;;;5071256;28;20302;-60
2023/05/05 12:00:15;;;;;;;2.70;1.95;;;25.60;96.10;;;;;;5070983;28;20621;-59
2023/05/05 12:02:42;;;;;;;4.60;2.55;;;25.70;97.30;;;;;;5071246;28;20263;-60
2023/05/05 12:05:10;;;;;;;9.30;2.10;;;25.90;96.60;;;;;;5071270;28;20266;-60
2023/05/05 12:07:36;;;;;;;4.80;2.28;;;26.10;94.40;;;;;;5070868;28;20235;-60
2023/05/05 12:10:04;;;;;;;2.55;2.03;;;26.10;94.70;;;;;;5071727;28;20223;-61
2023/05/05 12:12:35;;;;;;;2.75;2.30;;;26.30;94.90;;;;;;5071009;28;20201;-59
2023/05/05 12:15:02;;;;;;;3.65;2.10;;;26.70;95.20;;;;;;5071238;28;20282;-60
2023/05/05 12:17:38;;;;;;;3.25;2.03;;;27.20;94.70;;;;;;5070800;28;20262;-60
2023/05/05 12:20:06;;;;;;;7.53;4.10;;;27.60;93.90;;;;;;5070924;28;20680;-60
2023/05/05 12:22:34;;;;;;;6.15;2.85;;;27.90;93.60;;;;;;5070773;28;20739;-59
2023/05/05 12:25:02;;;;;;;3.85;2.95;;;28.30;93.40;;;;;;5070515;28;20270;-59
2023/05/05 12:27:29;;;;;;;3.08;2.20;;;28.50;92.10;;;;;;5070915;28;20201;-60
2023/05/05 12:29:57;;;;;;;4.70;2.10;;;28.60;90.80;;;;;;5071369;28;20209;-60
2023/05/05 12:32:25;;;;;;;3.33;2.33;;;28.80;90.10;;;;;;5070340;28;20215;-60
2023/05/05 12:34:54;;;;;;;5.47;2.13;;;28.90;90.10;;;;;;5071111;28;20235;-60
2023/05/05 12:37:22;;;;;;;3.92;2.15;;;29.00;90.10;;;;;;5070608;28;20754;-60
2023/05/05 12:39:51;;;;;;;12.23;10.98;;;29.00;89.90;;;;;;5070916;28;20204;-59
2023/05/05 12:42:18;;;;;;;8.45;6.90;;;29.00;89.00;;;;;;5070933;28;20202;-59
2023/05/05 12:44:45;;;;;;;5.95;2.20;;;28.80;88.40;;;;;;5070758;28;20291;-60
2023/05/05 12:47:13;;;;;;;3.05;1.92;;;28.80;86.10;;;;;;5070390;28;20216;-60
2023/05/05 12:49:50;;;;;;;2.70;1.70;;;28.80;84.50;;;;;;5070677;28;20296;-60
2023/05/05 12:52:17;;;;;;;3.83;1.90;;;28.80;84.70;;;;;;5070797;28;20733;-60
2023/05/05 12:54:56;;;;;;;4.38;1.80;;;28.40;84.40;;;;;;5070693;28;20229;-58
2023/05/05 12:57:23;;;;;;;2.40;2.08;;;28.00;85.60;;;;;;5070161;28;20695;-60
2023/05/05 12:59:50;;;;;;;3.55;1.70;;;28.00;85.20;;;;;;5071037;28;20297;-60
2023/05/05 13:02:17;;;;;;;3.25;2.03;;;27.90;86.10;;;;;;5070933;28;20200;-60